Flight Track Log - Related Links

Times and Time Zones

All times are in EDT time to prevent confusion due to time zone crossing. See the ASQ5723 flight status page for this flight to view local times or setup timezone preferences in your user account.

Time Position Orientation Groundspeed Altitude Reporting Facility
EDT Latitude Longitude Course Direction KTS MPH feet Rate Location/Type
Fri 06:34:37 AM 43.6333 -79.6333 119° Southeast 160 184 2,500  Level Toronto Center
Fri 06:35:37 AM 43.5833 -79.6500 194° South 210 242 5,000 2,350 Climbing Toronto Center
Fri 06:36:00 AM 43.3663 -79.4771 121° Southeast  Level Estimated
Fri 06:36:37 AM 43.5333 -79.5667 130° Southeast 280 322 7,200  Level Toronto Center
Fri 06:37:00 AM 43.2626 -79.4263 125° Southeast  Level Estimated
Fri 06:37:37 AM 43.5167 -79.4500 101° East 310 357 10,100  Level Toronto Center
Fri 06:38:00 AM 43.1589 -79.3757 160° South  Level Estimated
Fri 06:38:37 AM 43.5000 -79.3333 101° East 350 403 11,500  Level Toronto Center
Fri 06:39:00 AM 43.0551 -79.3252 160° South  Level Estimated
Fri 06:39:37 AM 43.4667 -79.2000 109° East 370 426 13,200  Level Toronto Center
Fri 06:40:00 AM 43.5843 -79.5845 119° Southeast  Level Estimated
Fri 06:40:37 AM 43.4500 -79.0333 98° East 390 449 15,200  Level Toronto Center
Fri 06:41:37 AM 43.4167 -78.9000 109° East 400 460 17,100 1,805 Climbing Toronto Center
Fri 06:42:30 AM 43.3725 -78.8158 126° Southeast 408 470 18,600 1,526 Climbing Cleveland Center
Fri 06:43:31 AM 43.3083 -78.6850 124° Southeast 411 473 20,000 1,268 Climbing Cleveland Center
Fri 06:44:33 AM 43.2419 -78.5489 124° Southeast 429 494 21,200 1,171 Climbing Cleveland Center
Fri 06:45:34 AM 43.1522 -78.4475 140° Southeast 434 499 22,400 1,131 Climbing Cleveland Center
Fri 06:46:35 AM 43.0369 -78.4292 173° South 424 488 23,500 1,024 Climbing Cleveland Center
Fri 06:47:37 AM 42.9189 -78.4086 173° South 425 489 24,500 1,073 Climbing Cleveland Center
Fri 06:48:38 AM 42.7761 -78.3864 173° South 430 495 25,700 1,082 Climbing Cleveland Center
Fri 06:49:39 AM 42.6583 -78.3681 173° South 431 496 26,700 634 Climbing Cleveland Center
Fri 06:50:41 AM 42.5386 -78.3486 173° South 435 501 27,000 146 Climbing Cleveland Center
Fri 06:51:42 AM 42.4136 -78.3286 173° South 452 520 27,000  Level Cleveland Center
Fri 06:52:44 AM 42.2853 -78.3086 173° South 463 533 27,000  Level Cleveland Center
Fri 06:53:45 AM 42.1569 -78.2892 174° South 474 545 27,000  Level Cleveland Center
Fri 06:54:46 AM 41.9994 -78.2647 173° South 475 547 27,000  Level Cleveland Center
Fri 06:55:48 AM 41.8667 -78.2439 173° South 477 549 27,000  Level Cleveland Center
Fri 06:56:49 AM 41.7331 -78.2242 174° South 482 555 27,000  Level Cleveland Center
Fri 06:57:51 AM 41.5989 -78.2028 173° South 482 555 27,000  Level Cleveland Center
Fri 06:58:52 AM 41.4644 -78.1814 173° South 484 557 27,000  Level Cleveland Center
Fri 06:59:54 AM 41.3286 -78.1606 173° South 487 560 27,000  Level Cleveland Center
Fri 07:00:50 AM 41.1828 -78.1322 172° South 511 588 27,000  Level New York Center
Fri 07:01:50 AM 41.0514 -78.0631 158° South 503 579 27,000 -300 Level New York Center
Fri 07:02:50 AM 40.9158 -77.9964 160° South 508 585 26,400 -1,150 Descending New York Center
Fri 07:03:50 AM 40.7867 -77.9278 158° South 513 590 24,700 -2,050 Descending New York Center
Fri 07:04:50 AM 40.6678 -77.8578 156° South 488 562 22,300 -2,400 Descending New York Center
Fri 07:05:50 AM 40.5517 -77.7803 153° Southeast 477 549 19,900 -1,850 Descending New York Center
Fri 07:06:50 AM 40.4350 -77.7058 154° Southeast 472 543 18,600 -1,350 Descending New York Center
Fri 07:07:50 AM 40.3228 -77.6319 153° Southeast 463 533 17,200 -1,250 Descending New York Center
Fri 07:08:50 AM 40.2081 -77.5581 154° Southeast 463 533 16,100 -1,153 Descending New York Center
Fri 07:10:47 AM 39.9833 -77.4500 160° South 437 503 13,800 -1,228 Descending Potomac TRACON
Fri 07:11:41 AM 39.8833 -77.4167 166° South 418 481 12,600 -1,263 Descending Potomac TRACON
Fri 07:12:41 AM 39.7833 -77.3833 166° South 414 476 11,400 -1,200 Descending Potomac TRACON
Fri 07:13:41 AM 39.6833 -77.3500 166° South 373 429 10,200 -889 Descending Potomac TRACON
Fri 07:14:29 AM 39.6000 -77.3333 171° South 314 361 9,800 -947 Descending Potomac TRACON
Fri 07:15:35 AM 39.5167 -77.3500 189° South 296 341 8,400 -1,200 Descending Potomac TRACON
Fri 07:16:29 AM 39.4333 -77.3667 189° South 291 335 7,400 -1,211 Descending Potomac TRACON
Fri 07:17:29 AM 39.3667 -77.3667 180° South 277 319 6,100 -1,263 Descending Potomac TRACON
Fri 07:18:23 AM 39.3000 -77.3667 180° South 272 313 5,000 -895 Descending Potomac TRACON
Fri 07:19:23 AM 39.2167 -77.3667 180° South 268 308 4,400 -526 Descending Potomac TRACON
Fri 07:20:17 AM 39.1500 -77.3500 169° South 264 304 4,000 -211 Descending Potomac TRACON
Fri 07:21:17 AM 39.0833 -77.3500 180° South 256 295 4,000 -496 Level Potomac TRACON
Fri 07:22:18 AM 39.0167 -77.3500 180° South 251 289 3,000 -522 Descending Potomac TRACON
Fri 07:23:12 AM 38.9500 -77.3500 180° South 261 300 3,000  Level Potomac TRACON
Fri 07:24:18 AM 38.8667 -77.3500 180° South 247 284 3,000  Level Potomac TRACON
Fri 07:25:12 AM 38.8333 -77.3667 201° Southwest 209 241 3,000 -526 Level Potomac TRACON
Fri 07:26:12 AM 38.8500 -77.4333 288° West 171 197 2,000 -900 Descending Potomac TRACON
Fri 07:27:12 AM 38.8833 -77.4333 360° North 140 161 1,200 -789 Descending Potomac TRACON
Fri 07:28:06 AM 38.9167 -77.4333 360° North 133 153 500 -778 Descending Potomac TRACON

Login

Don't have an account? Register now (free) for customized features, flight alerts, and more!